createdAt,value
2023-11-02T01:01:50.727Z,179.00
2023-11-02T01:02:35.836Z,179.00
2023-11-02T01:03:10.336Z,179.00
2023-11-02T01:04:02.351Z,178.67
2023-11-02T01:04:42.971Z,175.67
2023-11-02T01:05:28.248Z,172.00
2023-11-02T01:06:04.294Z,168.67
2023-11-02T01:06:40.860Z,168.33
2023-11-02T01:07:16.523Z,167.33
2023-11-02T01:07:50.651Z,166.33
2023-11-02T01:08:32.176Z,167.67
2023-11-02T01:09:35.340Z,169.00
2023-11-02T01:10:12.033Z,170.00
2023-11-02T01:10:45.714Z,171.00
2023-11-02T01:11:20.316Z,170.33
2023-11-02T01:11:53.770Z,169.00
2023-11-02T01:12:38.720Z,168.67
2023-11-02T01:13:19.244Z,167.67
2023-11-02T01:13:52.552Z,165.00
2023-11-02T01:14:49.564Z,161.00
2023-11-02T01:15:45.786Z,152.67
2023-11-02T01:16:19.469Z,140.67
2023-11-02T01:16:53.315Z,139.00
2023-11-02T01:17:33.109Z,138.67
2023-11-02T01:18:07.057Z,135.00
2023-11-02T01:18:49.547Z,133.67
2023-11-02T01:19:59.769Z,133.00
2023-11-02T01:21:04.258Z,131.67
2023-11-02T01:21:37.899Z,137.67
2023-11-02T01:23:03.569Z,135.67
2023-11-02T01:23:37.854Z,132.33
2023-11-02T01:24:23.566Z,128.67
2023-11-02T01:25:09.144Z,118.33
2023-11-02T01:25:50.456Z,113.33
2023-11-02T01:27:03.532Z,110.00
2023-11-02T01:27:37.012Z,109.67
2023-11-02T01:28:23.946Z,104.67
2023-11-02T01:28:58.817Z,98.33
2023-11-02T01:29:32.680Z,98.67
2023-11-02T01:30:21.603Z,101.33
2023-11-02T01:31:14.966Z,100.67
2023-11-02T01:31:49.681Z,96.00
2023-11-02T01:32:23.168Z,98.67
2023-11-02T01:32:57.142Z,99.00
2023-11-02T01:33:39.807Z,96.67
2023-11-02T01:34:25.173Z,94.33
2023-11-02T01:34:58.854Z,92.67
2023-11-02T01:35:45.836Z,91.00
2023-11-02T01:36:30.296Z,87.33
2023-11-02T01:37:04.234Z,87.00
2023-11-02T01:37:37.558Z,87.33
2023-11-02T01:38:16.879Z,89.67
2023-11-02T01:38:55.174Z,92.67
2023-11-02T01:39:32.071Z,94.00
2023-11-02T01:40:36.600Z,93.00
2023-11-02T01:41:11.145Z,85.67
2023-11-02T01:41:56.641Z,83.33
2023-11-02T01:42:43.854Z,84.33
2023-11-02T01:43:36.036Z,85.67
2023-11-02T01:44:15.920Z,86.67
2023-11-02T01:44:56.283Z,86.00
2023-11-02T01:45:36.375Z,83.33
2023-11-02T01:46:22.292Z,79.33
2023-11-02T01:47:29.832Z,78.00
2023-11-02T01:48:13.451Z,80.00
2023-11-02T01:49:30.785Z,79.33
2023-11-02T01:50:32.215Z,79.00
2023-11-02T01:51:34.670Z,79.00
2023-11-02T01:52:49.306Z,80.33
2023-11-02T01:53:51.793Z,86.00
2023-11-02T01:54:53.961Z,88.00
2023-11-02T01:56:11.789Z,87.00
2023-11-02T01:56:58.613Z,82.00
2023-11-02T01:58:09.454Z,82.00
2023-11-02T01:58:53.581Z,78.67
2023-11-02T01:59:44.918Z,77.00
2023-11-02T02:00:30.074Z,77.00
2023-11-02T02:01:23.297Z,78.00
2023-11-02T02:02:14.983Z,77.33
2023-11-02T02:02:57.472Z,77.00
2023-11-02T02:04:00.630Z,77.67
2023-11-02T02:04:43.438Z,78.00
2023-11-02T02:05:45.642Z,79.00
2023-11-02T02:06:51.256Z,81.00
2023-11-02T02:08:27.655Z,85.67
2023-11-02T02:09:57.905Z,88.00
2023-11-02T02:10:46.469Z,89.00
2023-11-02T02:11:54.929Z,88.67
2023-11-02T02:12:40.188Z,87.33
2023-11-02T02:13:36.588Z,87.00
2023-11-02T02:14:56.560Z,87.00
2023-11-02T02:16:12.322Z,87.00
2023-11-02T02:17:23.758Z,87.67
2023-11-02T02:18:19.923Z,89.67
2023-11-02T02:19:26.833Z,90.00
2023-11-02T02:20:15.086Z,93.33
2023-11-02T02:20:54.662Z,101.33
2023-11-02T02:21:35.410Z,105.00
2023-11-02T02:22:19.601Z,109.33
2023-11-02T02:23:20.953Z,112.00
2023-11-02T02:24:10.509Z,107.33
2023-11-02T02:25:06.831Z,107.00
2023-11-02T02:26:13.005Z,107.00
2023-11-02T02:27:06.648Z,105.00
2023-11-02T02:28:07.952Z,104.00
2023-11-02T02:28:59.774Z,101.33
2023-11-02T02:30:03.430Z,96.67
2023-11-02T02:31:08.848Z,92.33
2023-11-02T02:32:11.546Z,89.00
2023-11-02T02:33:42.766Z,86.33
2023-11-02T02:34:27.888Z,97.67
2023-11-02T02:35:35.521Z,100.33
2023-11-02T02:36:20.163Z,104.00
2023-11-02T02:37:18.276Z,109.67
2023-11-02T02:38:07.844Z,127.33
2023-11-02T02:38:45.311Z,142.33
2023-11-02T02:39:26.782Z,147.33
2023-11-02T02:40:12.287Z,148.00
2023-11-02T02:41:10.150Z,140.67
2023-11-02T02:41:51.629Z,132.33
2023-11-02T02:42:26.023Z,132.00
2023-11-02T02:43:04.546Z,133.33
2023-11-02T02:43:39.557Z,135.33
2023-11-02T02:44:16.499Z,140.00
2023-11-02T02:44:52.991Z,141.33
2023-11-02T02:45:30.317Z,143.33
2023-11-02T02:46:07.944Z,145.33
2023-11-02T02:46:43.867Z,144.33
2023-11-02T02:47:22.755Z,145.00
2023-11-02T02:48:02.526Z,145.00
2023-11-02T02:48:37.718Z,142.33
2023-11-02T02:49:12.035Z,141.67
2023-11-02T02:49:53.444Z,141.00
2023-11-02T02:50:32.310Z,140.00
2023-11-02T02:51:10.377Z,139.33
2023-11-02T02:51:48.497Z,140.33
2023-11-02T02:52:23.734Z,141.33
2023-11-02T02:53:01.055Z,143.33
2023-11-02T02:53:40.891Z,146.67
2023-11-02T02:54:15.773Z,150.67
2023-11-02T02:54:54.429Z,151.67
2023-11-02T02:55:30.983Z,150.00
2023-11-02T02:56:09.779Z,150.33
2023-11-02T02:56:46.640Z,150.00
2023-11-02T02:57:22.140Z,149.00
2023-11-02T02:58:03.814Z,148.33
2023-11-02T02:59:04.544Z,147.33
2023-11-02T02:59:47.176Z,146.67
2023-11-02T03:00:24.268Z,146.00
2023-11-02T03:00:58.080Z,145.00
2023-11-02T03:01:41.667Z,140.00
2023-11-02T03:02:22.694Z,131.00
2023-11-02T03:03:00.886Z,129.00
2023-11-02T03:03:39.939Z,129.00
2023-11-02T03:04:20.713Z,129.67
2023-11-02T03:04:57.052Z,130.33
2023-11-02T03:05:36.673Z,131.00
2023-11-02T03:06:14.081Z,132.00
2023-11-02T03:07:00.747Z,132.33
2023-11-02T03:07:38.350Z,133.00
2023-11-02T03:08:16.775Z,134.33
2023-11-02T03:08:52.741Z,135.00
2023-11-02T03:09:33.307Z,135.00
2023-11-02T03:10:11.982Z,135.00
2023-11-02T03:10:48.949Z,134.33
2023-11-02T03:11:25.290Z,131.33
2023-11-02T03:12:06.347Z,128.33
2023-11-02T03:12:44.182Z,126.67
2023-11-02T03:13:20.918Z,124.00
2023-11-02T03:13:57.410Z,122.33
2023-11-02T03:14:37.312Z,121.00
2023-11-02T03:15:14.963Z,121.00
2023-11-02T03:15:55.373Z,121.33
2023-11-02T03:16:36.409Z,122.33
2023-11-02T03:17:24.813Z,123.00
2023-11-02T03:18:14.700Z,123.00
2023-11-02T03:18:49.180Z,125.00
2023-11-02T03:19:49.860Z,128.00
2023-11-02T03:20:23.622Z,143.33
2023-11-02T03:20:57.170Z,154.00
2023-11-02T03:21:31.949Z,161.00
2023-11-02T03:22:05.972Z,163.33
2023-11-02T03:22:44.517Z,164.00
2023-11-02T03:23:58.152Z,162.33
2023-11-02T03:24:45.567Z,168.00
2023-11-02T03:25:55.370Z,183.00
2023-11-02T03:27:07.314Z,184.00
2023-11-02T03:28:21.255Z,189.67
2023-11-02T03:29:27.010Z,182.33
2023-11-02T03:30:10.736Z,179.00
2023-11-02T03:31:13.338Z,181.33
2023-11-02T03:32:03.990Z,182.33
2023-11-02T03:33:09.677Z,181.00
2023-11-02T03:34:07.914Z,179.33
2023-11-02T03:34:52.264Z,179.00
2023-11-02T03:36:04.600Z,179.00
2023-11-02T03:36:56.590Z,180.00
2023-11-02T03:37:38.138Z,180.00
2023-11-02T03:38:51.896Z,180.00
2023-11-02T03:39:48.908Z,180.00
2023-11-02T03:41:05.246Z,179.67
2023-11-02T03:42:07.425Z,179.00
2023-11-02T03:43:11.809Z,179.00
2023-11-02T03:44:14.162Z,180.33
2023-11-02T03:45:10.301Z,186.67
2023-11-02T03:46:28.286Z,185.00
2023-11-02T03:47:29.232Z,184.67
2023-11-02T03:48:37.278Z,184.00
2023-11-02T03:49:29.911Z,184.00
2023-11-02T03:50:28.538Z,184.00
2023-11-02T03:51:38.535Z,184.33
2023-11-02T03:52:17.678Z,185.67
2023-11-02T03:53:33.168Z,186.67
2023-11-02T03:54:41.985Z,187.33
2023-11-02T03:55:23.801Z,189.00
2023-11-02T03:56:13.171Z,189.00
2023-11-02T03:57:09.601Z,189.00
2023-11-02T03:58:07.394Z,190.00
2023-11-02T03:59:14.820Z,192.67
2023-11-02T04:00:03.551Z,191.67
2023-11-02T04:00:57.912Z,191.00
2023-11-02T04:01:53.068Z,191.00
2023-11-02T04:02:35.377Z,189.33
2023-11-02T04:03:13.417Z,188.00
2023-11-02T04:03:52.398Z,187.33
2023-11-02T04:04:37.229Z,186.33
2023-11-02T04:05:18.889Z,185.00
2023-11-02T04:05:59.935Z,184.00
2023-11-02T04:06:57.203Z,183.00
2023-11-02T04:07:56.118Z,182.67
2023-11-02T04:08:35.526Z,182.67
2023-11-02T04:09:19.010Z,183.00
2023-11-02T04:10:08.361Z,183.67
2023-11-02T04:10:55.257Z,185.00
2023-11-02T04:11:52.605Z,187.00
2023-11-02T04:12:42.989Z,194.00
2023-11-02T04:13:23.699Z,199.00
2023-11-02T04:14:25.990Z,199.67
2023-11-02T04:15:03.796Z,200.67
2023-11-02T04:15:37.309Z,201.00
2023-11-02T04:16:14.216Z,202.00
2023-11-02T04:16:47.723Z,202.00
2023-11-02T04:17:23.890Z,202.00
2023-11-02T04:18:00.301Z,201.00
2023-11-02T04:18:34.214Z,201.00
2023-11-02T04:19:09.500Z,200.00
2023-11-02T04:19:45.066Z,200.00
2023-11-02T04:20:18.586Z,200.00
2023-11-02T04:20:55.065Z,200.00
2023-11-02T04:21:28.682Z,201.67
2023-11-02T04:22:02.483Z,204.67
2023-11-02T04:22:35.939Z,207.33
2023-11-02T04:23:09.548Z,211.00
2023-11-02T04:23:43.009Z,215.00
2023-11-02T04:24:17.277Z,216.00
2023-11-02T04:24:51.706Z,216.00
2023-11-02T04:25:26.155Z,215.00
2023-11-02T04:26:00.492Z,214.00
2023-11-02T04:26:34.088Z,213.67
2023-11-02T04:27:07.687Z,213.00
2023-11-02T04:27:42.289Z,212.67
2023-11-02T04:28:15.656Z,212.00
2023-11-02T04:28:52.423Z,212.00
2023-11-02T04:29:25.987Z,212.00
2023-11-02T04:29:59.404Z,211.33
2023-11-02T04:30:33.746Z,211.00
2023-11-02T04:31:10.115Z,211.00
2023-11-02T04:31:43.469Z,211.00
2023-11-02T04:32:16.935Z,210.67
2023-11-02T04:32:53.430Z,209.33
2023-11-02T04:33:27.120Z,209.00
2023-11-02T04:34:00.565Z,208.00
2023-11-02T04:34:34.136Z,208.00
2023-11-02T04:35:08.253Z,208.00
2023-11-02T04:35:42.518Z,208.00
2023-11-02T04:36:15.783Z,208.00
2023-11-02T04:36:52.275Z,209.00
2023-11-02T04:37:25.810Z,209.00
2023-11-02T04:38:10.960Z,209.00
2023-11-02T04:38:45.874Z,209.00
2023-11-02T04:39:23.749Z,209.00
2023-11-02T04:39:58.483Z,209.00
2023-11-02T04:40:31.802Z,207.00
2023-11-02T04:41:05.437Z,204.00
2023-11-02T04:41:40.312Z,201.33
2023-11-02T04:42:19.861Z,198.67
2023-11-02T04:42:53.467Z,196.33
2023-11-02T04:43:32.728Z,195.00
2023-11-02T04:44:06.056Z,191.67
2023-11-02T04:44:40.044Z,190.00
2023-11-02T04:45:13.750Z,189.67
2023-11-02T04:45:47.429Z,189.00
2023-11-02T04:46:21.096Z,189.00
2023-11-02T04:46:54.842Z,188.67
2023-11-02T04:47:28.390Z,189.67
2023-11-02T04:48:04.091Z,190.00
2023-11-02T04:48:37.739Z,189.67
2023-11-02T04:49:14.441Z,188.67
2023-11-02T04:49:48.045Z,187.00
2023-11-02T04:50:21.851Z,186.67
2023-11-02T04:50:57.882Z,186.00
2023-11-02T04:51:31.539Z,186.67
2023-11-02T04:52:06.364Z,187.00
2023-11-02T04:52:42.587Z,186.00
2023-11-02T04:53:15.889Z,184.00
2023-11-02T04:53:51.222Z,183.00
2023-11-02T04:54:28.330Z,184.00
2023-11-02T04:55:02.818Z,184.00
2023-11-02T04:55:36.661Z,184.33
2023-11-02T04:56:10.333Z,185.00
2023-11-02T04:56:43.974Z,185.33
2023-11-02T04:57:17.552Z,186.00
2023-11-02T04:57:50.801Z,186.67
2023-11-02T04:58:24.180Z,189.00
2023-11-02T04:58:57.754Z,190.00
2023-11-02T04:59:42.949Z,190.00
2023-11-02T05:00:16.943Z,190.00
2023-11-02T05:00:51.575Z,190.00
2023-11-02T05:01:25.098Z,189.33
2023-11-02T05:01:58.757Z,189.00
2023-11-02T05:02:39.692Z,187.67
2023-11-02T05:03:13.454Z,186.00
2023-11-02T05:03:49.793Z,186.00
2023-11-02T05:04:25.867Z,186.00
2023-11-02T05:04:59.463Z,186.00
2023-11-02T05:05:33.098Z,186.00
2023-11-02T05:06:10.187Z,186.00
2023-11-02T05:06:44.371Z,186.00
2023-11-02T05:07:18.473Z,186.00
2023-11-02T05:07:55.086Z,186.00
2023-11-02T05:08:28.540Z,186.67
2023-11-02T05:09:03.984Z,187.00
2023-11-02T05:09:37.655Z,187.00
2023-11-02T05:10:11.284Z,187.00
2023-11-02T05:10:44.838Z,188.00
2023-11-02T05:11:18.428Z,188.00
2023-11-02T05:11:51.924Z,188.67
2023-11-02T05:12:25.531Z,188.33
2023-11-02T05:12:58.877Z,188.00
2023-11-02T05:13:32.414Z,188.00
2023-11-02T05:14:05.944Z,187.33
2023-11-02T05:14:39.505Z,185.67
2023-11-02T05:15:13.319Z,184.00
2023-11-02T05:15:55.980Z,178.00
2023-11-02T05:16:30.689Z,168.67
2023-11-02T05:17:04.641Z,167.00
2023-11-02T05:17:38.236Z,166.33
2023-11-02T05:18:11.885Z,168.00
2023-11-02T05:18:45.433Z,169.67
2023-11-02T05:19:19.035Z,170.67
2023-11-02T05:19:52.609Z,171.00
2023-11-02T05:20:26.586Z,172.00
2023-11-02T05:21:01.168Z,172.00
2023-11-02T05:21:36.189Z,170.67
2023-11-02T05:22:09.531Z,169.00
2023-11-02T05:22:43.190Z,167.00
2023-11-02T05:23:16.736Z,168.33
2023-11-02T05:23:50.210Z,169.00
2023-11-02T05:24:23.871Z,169.00
2023-11-02T05:24:57.216Z,167.00
2023-11-02T05:25:30.927Z,164.67
2023-11-02T05:26:05.250Z,166.00
2023-11-02T05:26:40.899Z,167.00
2023-11-02T05:27:14.479Z,167.33
2023-11-02T05:27:47.986Z,168.00
2023-11-02T05:28:22.515Z,168.00
2023-11-02T05:28:55.751Z,168.00
2023-11-02T05:29:32.095Z,167.33
2023-11-02T05:30:07.542Z,164.33
2023-11-02T05:30:42.255Z,162.67
2023-11-02T05:31:15.847Z,163.67
2023-11-02T05:31:50.966Z,164.00
2023-11-02T05:32:25.100Z,165.00
2023-11-02T05:32:58.784Z,165.67
2023-11-02T05:33:32.133Z,167.67
2023-11-02T05:34:05.830Z,169.00
2023-11-02T05:34:42.232Z,177.33
2023-11-02T05:35:17.575Z,193.00
2023-11-02T05:35:52.047Z,195.67
2023-11-02T05:36:26.747Z,197.67
2023-11-02T05:37:00.280Z,199.00
2023-11-02T05:37:33.609Z,198.00
2023-11-02T05:38:08.040Z,196.67
2023-11-02T05:38:41.390Z,198.33
2023-11-02T05:39:16.360Z,199.00
2023-11-02T05:39:49.761Z,195.33
2023-11-02T05:40:24.381Z,193.00
2023-11-02T05:40:57.959Z,190.33
2023-11-02T05:41:31.271Z,189.67
2023-11-02T05:42:04.971Z,189.00
2023-11-02T05:42:38.865Z,189.00
2023-11-02T05:43:13.156Z,188.67
2023-11-02T05:43:46.733Z,188.00
2023-11-02T05:44:20.051Z,188.00
2023-11-02T05:44:53.847Z,188.00
2023-11-02T05:45:27.379Z,190.00
2023-11-02T05:46:02.836Z,191.33
2023-11-02T05:46:38.227Z,194.67
2023-11-02T05:47:12.321Z,197.33
2023-11-02T05:47:45.620Z,198.00
2023-11-02T05:48:19.181Z,198.00
2023-11-02T05:48:52.944Z,198.00
2023-11-02T05:49:29.178Z,199.67
2023-11-02T05:50:04.569Z,201.33
2023-11-02T05:50:39.868Z,205.00
2023-11-02T05:51:13.407Z,209.33
2023-11-02T05:51:47.149Z,209.67
2023-11-02T05:52:20.718Z,211.67
2023-11-02T05:52:55.773Z,212.33
2023-11-02T05:53:30.411Z,214.00
2023-11-02T05:54:04.945Z,216.67
2023-11-02T05:54:41.441Z,217.00
2023-11-02T05:55:15.048Z,216.33
2023-11-02T05:55:48.982Z,221.67
2023-11-02T05:56:22.570Z,307.67
2023-11-02T05:56:56.432Z,395.33
2023-11-02T05:57:30.128Z,407.67
2023-11-02T05:58:04.572Z,402.33
2023-11-02T05:58:37.992Z,391.33
2023-11-02T05:59:14.059Z,367.00
2023-11-02T05:59:47.553Z,336.33
2023-11-02T06:00:21.092Z,317.00
2023-11-02T06:00:55.640Z,293.33
2023-11-02T06:01:28.876Z,285.33
2023-11-02T06:02:02.893Z,267.00
2023-11-02T06:02:36.977Z,238.00
2023-11-02T06:03:10.627Z,223.67
2023-11-02T06:03:44.459Z,215.67
2023-11-02T06:04:17.815Z,210.67
2023-11-02T06:04:53.990Z,210.33
2023-11-02T06:05:27.319Z,211.67
2023-11-02T06:06:03.571Z,213.33
2023-11-02T06:06:37.048Z,213.67
2023-11-02T06:07:10.610Z,212.33
2023-11-02T06:07:44.126Z,211.00
2023-11-02T06:08:17.882Z,207.33
2023-11-02T06:08:51.470Z,205.33
2023-11-02T06:09:24.960Z,208.67
2023-11-02T06:10:00.055Z,207.00
2023-11-02T06:10:33.800Z,204.33
2023-11-02T06:11:07.519Z,204.33
2023-11-02T06:11:41.139Z,208.67
2023-11-02T06:12:15.008Z,209.67
2023-11-02T06:12:48.303Z,211.67
2023-11-02T06:13:22.690Z,214.00
2023-11-02T06:13:56.791Z,213.67
2023-11-02T06:14:30.343Z,214.33
2023-11-02T06:15:06.461Z,216.00
2023-11-02T06:15:39.793Z,224.00
2023-11-02T06:16:14.335Z,234.67
2023-11-02T06:16:47.859Z,241.67
2023-11-02T06:17:25.473Z,246.67
2023-11-02T06:17:58.964Z,254.00
2023-11-02T06:18:32.475Z,256.33
2023-11-02T06:19:06.132Z,254.67
2023-11-02T06:19:39.880Z,253.67
2023-11-02T06:20:15.449Z,251.33
2023-11-02T06:20:51.948Z,249.67
2023-11-02T06:21:25.537Z,248.67
2023-11-02T06:21:59.197Z,247.33
2023-11-02T06:22:32.595Z,247.00
2023-11-02T06:23:07.525Z,246.33
2023-11-02T06:23:41.097Z,246.00
2023-11-02T06:24:14.750Z,245.33
2023-11-02T06:24:48.122Z,245.00
2023-11-02T06:25:22.702Z,244.33
2023-11-02T06:25:56.643Z,244.00
2023-11-02T06:26:30.190Z,243.33
2023-11-02T06:27:06.297Z,242.67
2023-11-02T06:27:39.818Z,242.00
2023-11-02T06:28:14.902Z,242.00
2023-11-02T06:28:48.261Z,242.00
2023-11-02T06:29:22.066Z,241.33
2023-11-02T06:29:55.910Z,241.00
2023-11-02T06:30:29.433Z,240.67
2023-11-02T06:31:06.673Z,240.00
2023-11-02T06:31:40.420Z,240.00
2023-11-02T06:32:13.947Z,239.00
2023-11-02T06:32:47.532Z,239.00
2023-11-02T06:33:34.621Z,239.00
2023-11-02T06:34:08.224Z,239.00
2023-11-02T06:34:41.599Z,239.33
2023-11-02T06:35:16.077Z,240.00
2023-11-02T06:35:52.059Z,240.67
2023-11-02T06:36:25.652Z,241.00
2023-11-02T06:36:59.435Z,241.00
2023-11-02T06:37:33.238Z,240.00
2023-11-02T06:38:06.802Z,240.00
2023-11-02T06:38:41.098Z,240.00
2023-11-02T06:39:21.882Z,240.00
2023-11-02T06:39:55.490Z,239.67
2023-11-02T06:40:30.170Z,239.00
2023-11-02T06:41:04.561Z,239.00
2023-11-02T06:41:38.713Z,238.33
2023-11-02T06:42:15.051Z,238.67
2023-11-02T06:42:53.677Z,238.00
2023-11-02T06:43:28.266Z,239.33
2023-11-02T06:44:02.900Z,240.00
2023-11-02T06:44:40.445Z,240.67
2023-11-02T06:45:14.073Z,240.00
2023-11-02T06:45:47.596Z,239.33
2023-11-02T06:46:21.290Z,238.33
2023-11-02T06:46:54.612Z,237.00
2023-11-02T06:47:28.506Z,236.33
2023-11-02T06:48:04.041Z,234.00
2023-11-02T06:48:37.522Z,230.67
2023-11-02T06:49:11.209Z,228.00
2023-11-02T06:49:45.515Z,225.00
2023-11-02T06:50:19.237Z,217.67
2023-11-02T06:50:53.880Z,215.67
2023-11-02T06:51:27.487Z,215.00
2023-11-02T06:52:03.791Z,212.00
2023-11-02T06:52:37.417Z,206.00
2023-11-02T06:53:10.988Z,203.33
2023-11-02T06:53:44.308Z,205.33
2023-11-02T06:54:18.003Z,204.00
2023-11-02T06:54:51.549Z,203.33
2023-11-02T06:55:25.924Z,203.00
2023-11-02T06:55:59.439Z,204.67
2023-11-02T06:56:32.753Z,203.33
2023-11-02T06:57:07.073Z,203.33
2023-11-02T06:57:40.563Z,202.33
2023-11-02T06:58:17.061Z,204.00
2023-11-02T06:58:50.993Z,205.67
2023-11-02T06:59:24.653Z,206.67
2023-11-02T06:59:58.186Z,207.33
2023-11-02T07:00:31.512Z,208.00
2023-11-02T07:01:06.790Z,207.67
2023-11-02T07:01:43.130Z,205.00
2023-11-02T07:02:17.220Z,203.00
2023-11-02T07:02:51.683Z,202.67
2023-11-02T07:03:28.512Z,198.67
2023-11-02T07:04:02.924Z,187.33
2023-11-02T07:04:36.307Z,183.67
2023-11-02T07:05:11.270Z,184.00
2023-11-02T07:05:45.234Z,181.00
2023-11-02T07:06:19.912Z,180.67
2023-11-02T07:06:53.688Z,179.00
2023-11-02T07:07:27.271Z,177.67
2023-11-02T07:08:00.854Z,177.00
2023-11-02T07:08:34.420Z,176.33
2023-11-02T07:09:11.029Z,177.33
2023-11-02T07:09:44.661Z,176.00
2023-11-02T07:10:21.618Z,175.00
2023-11-02T07:10:57.171Z,174.33
2023-11-02T07:11:31.271Z,175.67
2023-11-02T07:12:05.252Z,176.00
2023-11-02T07:12:38.831Z,175.00
2023-11-02T07:13:14.303Z,171.67
2023-11-02T07:13:48.519Z,173.00
2023-11-02T07:14:23.040Z,174.67
2023-11-02T07:14:56.874Z,176.33
2023-11-02T07:15:30.841Z,177.33
2023-11-02T07:16:05.270Z,178.00
2023-11-02T07:16:38.841Z,179.00
2023-11-02T07:17:13.273Z,179.00
2023-11-02T07:17:46.962Z,179.67
2023-11-02T07:18:20.683Z,180.00
2023-11-02T07:18:54.445Z,180.00
2023-11-02T07:19:28.339Z,179.67
2023-11-02T07:20:02.976Z,176.00
2023-11-02T07:20:36.557Z,169.67
2023-11-02T07:21:10.087Z,165.33
2023-11-02T07:21:43.644Z,165.00
2023-11-02T07:22:17.956Z,164.67
2023-11-02T07:22:51.642Z,163.00
2023-11-02T07:23:25.674Z,163.00
2023-11-02T07:23:59.366Z,162.67
2023-11-02T07:24:32.801Z,159.33
2023-11-02T07:25:06.986Z,153.00
2023-11-02T07:25:40.492Z,152.67
2023-11-02T07:26:13.837Z,151.00
2023-11-02T07:26:49.987Z,148.67
2023-11-02T07:27:24.794Z,144.00
2023-11-02T07:27:58.108Z,133.33
2023-11-02T07:28:31.932Z,124.00
2023-11-02T07:29:05.580Z,124.67
2023-11-02T07:29:42.035Z,127.33
2023-11-02T07:30:18.418Z,132.67
2023-11-02T07:30:52.152Z,137.67
2023-11-02T07:31:28.687Z,139.33
2023-11-02T07:32:03.129Z,133.33
2023-11-02T07:32:37.362Z,126.67
2023-11-02T07:33:11.178Z,124.67
2023-11-02T07:33:47.479Z,122.33
2023-11-02T07:34:21.970Z,120.33
2023-11-02T07:34:55.631Z,121.00
2023-11-02T07:35:31.326Z,124.33
2023-11-02T07:36:14.437Z,125.33
2023-11-02T07:36:58.291Z,129.33
2023-11-02T07:37:31.860Z,130.33
2023-11-02T07:38:05.727Z,131.00
2023-11-02T07:38:39.909Z,131.33
2023-11-02T07:39:17.364Z,132.00
2023-11-02T07:39:50.759Z,132.00
2023-11-02T07:40:24.020Z,131.33
2023-11-02T07:40:59.042Z,131.00
2023-11-02T07:41:32.509Z,131.00
2023-11-02T07:42:06.441Z,130.00
2023-11-02T07:42:40.332Z,130.33
2023-11-02T07:43:14.214Z,131.00
2023-11-02T07:43:47.785Z,131.00
2023-11-02T07:44:21.379Z,130.67
2023-11-02T07:44:54.963Z,129.67
2023-11-02T07:45:28.557Z,126.00
2023-11-02T07:46:03.036Z,119.33
2023-11-02T07:46:36.387Z,115.33
2023-11-02T07:47:09.959Z,113.00
2023-11-02T07:47:43.627Z,111.33
2023-11-02T07:48:17.305Z,112.00
2023-11-02T07:48:54.918Z,113.67
2023-11-02T07:49:28.811Z,113.67
2023-11-02T07:50:04.621Z,115.33
2023-11-02T07:50:38.523Z,116.00
2023-11-02T07:51:15.733Z,116.00
2023-11-02T07:51:49.893Z,115.67
2023-11-02T07:52:23.438Z,114.67
2023-11-02T07:52:57.343Z,113.67
2023-11-02T07:53:36.563Z,108.67
2023-11-02T07:54:11.131Z,106.67
2023-11-02T07:54:44.666Z,105.00
2023-11-02T07:55:18.515Z,105.00
2023-11-02T07:55:51.790Z,106.33
2023-11-02T07:56:25.453Z,106.00
2023-11-02T07:56:59.012Z,102.67
2023-11-02T07:57:32.765Z,97.33
2023-11-02T07:58:08.067Z,95.00
2023-11-02T07:58:44.676Z,96.00
2023-11-02T07:59:18.085Z,97.67
2023-11-02T07:59:51.932Z,99.00
2023-11-02T08:00:25.218Z,100.00
2023-11-02T08:00:58.748Z,101.00
2023-11-02T08:01:32.577Z,102.00
2023-11-02T08:02:07.736Z,102.67
2023-11-02T08:02:40.972Z,103.67
2023-11-02T08:03:14.263Z,104.00
2023-11-02T08:03:48.015Z,104.00
2023-11-02T08:04:23.631Z,104.00
2023-11-02T08:04:58.276Z,104.33
2023-11-02T08:05:31.760Z,106.33
2023-11-02T08:06:06.129Z,108.00
2023-11-02T08:06:42.138Z,108.67
2023-11-02T08:07:15.495Z,109.00
2023-11-02T08:07:49.597Z,108.33
2023-11-02T08:08:24.509Z,108.00
2023-11-02T08:08:57.755Z,107.67
2023-11-02T08:09:31.425Z,104.00
2023-11-02T08:10:09.073Z,99.00
2023-11-02T08:10:43.574Z,96.00
2023-11-02T08:11:17.312Z,96.33
2023-11-02T08:11:50.576Z,96.67
2023-11-02T08:12:23.960Z,94.00
2023-11-02T08:12:57.663Z,91.00
2023-11-02T08:13:34.884Z,88.67
2023-11-02T08:14:08.578Z,86.00
2023-11-02T08:14:41.904Z,86.33
2023-11-02T08:15:15.815Z,87.67
2023-11-02T08:15:49.442Z,89.33
2023-11-02T08:16:25.830Z,90.00
2023-11-02T08:16:59.285Z,91.00
2023-11-02T08:17:32.827Z,91.67
2023-11-02T08:18:06.730Z,92.67
2023-11-02T08:18:40.436Z,94.00
2023-11-02T08:19:17.117Z,94.00
2023-11-02T08:19:50.725Z,94.00
2023-11-02T08:20:24.424Z,94.67
2023-11-02T08:20:58.006Z,95.00
2023-11-02T08:21:31.908Z,95.00
2023-11-02T08:22:07.004Z,95.67
2023-11-02T08:22:40.371Z,96.00
2023-11-02T08:23:15.294Z,96.00
2023-11-02T08:23:49.943Z,96.00
2023-11-02T08:24:23.983Z,95.00
2023-11-02T08:24:57.295Z,95.67
2023-11-02T08:25:33.916Z,97.00
2023-11-02T08:26:07.256Z,99.00
2023-11-02T08:26:43.697Z,99.00
2023-11-02T08:27:17.407Z,98.67
2023-11-02T08:27:58.421Z,98.00
2023-11-02T08:28:34.581Z,96.67
2023-11-02T08:29:08.042Z,95.33
2023-11-02T08:29:41.576Z,94.33
2023-11-02T08:30:17.380Z,92.67
2023-11-02T08:30:51.584Z,89.00
2023-11-02T08:31:34.048Z,87.67
2023-11-02T08:32:08.326Z,88.00
2023-11-02T08:32:41.689Z,88.67
2023-11-02T08:33:18.162Z,89.00
2023-11-02T08:33:52.072Z,89.00
2023-11-02T08:34:26.112Z,89.33
2023-11-02T08:35:01.195Z,90.67
2023-11-02T08:35:34.492Z,93.33
2023-11-02T08:36:16.792Z,97.33
2023-11-02T08:36:50.190Z,107.67
2023-11-02T08:37:26.500Z,126.00
2023-11-02T08:38:00.747Z,139.00
2023-11-02T08:38:34.446Z,138.67
2023-11-02T08:39:09.232Z,132.33
2023-11-02T08:39:42.859Z,126.00
2023-11-02T08:40:22.255Z,122.00
2023-11-02T08:40:55.892Z,119.67
2023-11-02T08:41:33.933Z,118.33
2023-11-02T08:42:08.300Z,117.33
2023-11-02T08:42:48.484Z,116.67
2023-11-02T08:43:24.633Z,115.00
2023-11-02T08:44:00.418Z,114.00
2023-11-02T08:44:34.155Z,114.00
2023-11-02T08:45:09.224Z,114.00
2023-11-02T08:45:42.829Z,113.00
2023-11-02T08:46:21.150Z,112.00
2023-11-02T08:46:57.441Z,109.00
2023-11-02T08:47:31.643Z,105.33
2023-11-02T08:48:06.072Z,104.00
2023-11-02T08:48:40.339Z,104.00
2023-11-02T08:49:15.648Z,104.00
2023-11-02T08:49:49.187Z,103.67
2023-11-02T08:50:22.777Z,103.00
2023-11-02T08:50:56.594Z,103.67
2023-11-02T08:51:30.350Z,105.00
2023-11-02T08:52:05.817Z,108.33
2023-11-02T08:52:40.457Z,109.00
2023-11-02T08:53:14.034Z,109.67
2023-11-02T08:53:48.430Z,110.00
2023-11-02T08:54:21.781Z,109.33
2023-11-02T08:54:55.555Z,108.33
2023-11-02T08:55:28.968Z,106.67
2023-11-02T08:56:03.132Z,105.33
2023-11-02T08:56:36.506Z,104.00
2023-11-02T08:57:10.024Z,104.00
2023-11-02T08:57:43.784Z,104.00
2023-11-02T08:58:17.187Z,104.33
2023-11-02T08:58:53.681Z,105.33
2023-11-02T08:59:26.995Z,108.33
2023-11-02T09:00:02.299Z,110.00
2023-11-02T09:00:36.531Z,111.00
2023-11-02T09:01:11.807Z,111.00
2023-11-02T09:01:45.818Z,111.33
2023-11-02T09:02:19.742Z,112.00
2023-11-02T09:02:53.096Z,111.67
2023-11-02T09:03:26.687Z,112.33
2023-11-02T09:04:00.205Z,122.33
2023-11-02T09:04:34.221Z,127.00
2023-11-02T09:05:08.434Z,125.00
2023-11-02T09:05:41.790Z,123.00
2023-11-02T09:06:16.477Z,121.67
2023-11-02T09:06:50.382Z,117.67
2023-11-02T09:07:23.717Z,112.67
2023-11-02T09:07:57.016Z,108.33
2023-11-02T09:08:32.921Z,105.67
2023-11-02T09:09:07.084Z,103.00
2023-11-02T09:09:40.806Z,103.00
2023-11-02T09:10:14.419Z,102.33
2023-11-02T09:10:47.794Z,102.00